createdAt,value
2023-03-06T00:02:22.342Z,97863.88
2023-03-06T00:04:48.806Z,97864.13
2023-03-06T00:07:15.216Z,97861.16
2023-03-06T00:09:41.770Z,97863.03
2023-03-06T00:12:08.874Z,97853.94
2023-03-06T00:14:35.337Z,97856.88
2023-03-06T00:17:01.839Z,97860.34
2023-03-06T00:19:28.271Z,97859.81
2023-03-06T00:21:54.787Z,97853.38
2023-03-06T00:24:21.333Z,97856.06
2023-03-06T00:26:47.856Z,97847.50
2023-03-06T00:29:14.241Z,97845.63
2023-03-06T00:31:40.676Z,97844.81
2023-03-06T00:34:07.185Z,97840.28
2023-03-06T00:36:33.659Z,97836.00
2023-03-06T00:39:00.188Z,97838.41
2023-03-06T00:41:27.111Z,97836.00
2023-03-06T00:43:53.588Z,97829.84
2023-03-06T00:46:20.150Z,97828.22
2023-03-06T00:48:46.540Z,97828.22
2023-03-06T00:51:14.023Z,97818.06
2023-03-06T00:53:40.466Z,97816.97
2023-03-06T00:56:09.012Z,97818.59
2023-03-06T00:58:35.529Z,97813.22
2023-03-06T01:01:01.897Z,97814.84
2023-03-06T01:03:28.276Z,97809.47
2023-03-06T01:05:54.716Z,97812.16
2023-03-06T01:08:21.162Z,97805.72
2023-03-06T01:10:47.766Z,97799.84
2023-03-06T01:13:14.164Z,97798.78
2023-03-06T01:15:40.923Z,97797.16
2023-03-06T01:18:07.559Z,97792.63
2023-03-06T01:20:34.046Z,97791.81
2023-03-06T01:23:01.086Z,97796.38
2023-03-06T01:25:27.722Z,97793.69
2023-03-06T01:27:54.245Z,97788.34
2023-03-06T01:30:20.835Z,97781.09
2023-03-06T01:32:48.253Z,97786.47
2023-03-06T01:35:14.913Z,97782.19
2023-03-06T01:37:41.392Z,97779.50
2023-03-06T01:40:10.274Z,97776.28
2023-03-06T01:42:36.887Z,97783.25
2023-03-06T01:45:08.779Z,97776.28
2023-03-06T01:47:35.366Z,97776.28
2023-03-06T01:50:04.020Z,97772.00
2023-03-06T01:52:36.135Z,97753.50
2023-03-06T01:55:08.209Z,97752.72
2023-03-06T01:57:40.720Z,97757.00
2023-03-06T02:00:11.213Z,97755.38
2023-03-06T02:02:39.334Z,97753.78
2023-03-06T02:05:07.278Z,97748.44
2023-03-06T02:07:36.146Z,97748.44
2023-03-06T02:10:02.695Z,97738.78
2023-03-06T02:12:29.280Z,97739.88
2023-03-06T02:14:56.809Z,97740.66
2023-03-06T02:17:23.750Z,97729.16
2023-03-06T02:20:05.755Z,97732.09
2023-03-06T02:22:55.050Z,97717.91
2023-03-06T02:25:39.675Z,97724.88
2023-03-06T02:28:08.859Z,97719.75
2023-03-06T02:30:36.551Z,97720.59
2023-03-06T02:33:04.490Z,97714.41
2023-03-06T02:35:36.332Z,97709.88
2023-03-06T02:38:15.036Z,97695.94
2023-03-06T02:40:48.709Z,97699.69
2023-03-06T02:43:18.423Z,97703.16
2023-03-06T02:45:48.961Z,97698.88
2023-03-06T02:48:16.741Z,97698.09
2023-03-06T02:50:44.629Z,97693.53
2023-03-06T02:53:13.916Z,97688.47
2023-03-06T02:55:40.778Z,97685.50
2023-03-06T02:58:07.648Z,97676.69
2023-03-06T03:00:34.331Z,97678.28
2023-03-06T03:03:01.448Z,97683.91
2023-03-06T03:05:28.015Z,97692.75
2023-03-06T03:07:54.441Z,97693.81
2023-03-06T03:10:21.114Z,97692.19
2023-03-06T03:12:47.634Z,97686.03
2023-03-06T03:15:14.328Z,97689.53
2023-03-06T03:17:41.196Z,97684.19
2023-03-06T03:20:11.502Z,97685.78
2023-03-06T03:22:38.474Z,97681.22
2023-03-06T03:25:05.829Z,97687.38
2023-03-06T03:27:32.486Z,97683.38
2023-03-06T03:30:00.284Z,97674.28
2023-03-06T03:32:27.266Z,97676.94
2023-03-06T03:34:56.056Z,97670.22
2023-03-06T03:37:22.786Z,97667.81
2023-03-06T03:39:49.150Z,97660.59
2023-03-06T03:42:15.652Z,97664.34
2023-03-06T03:44:42.299Z,97669.16
2023-03-06T03:47:08.878Z,97673.72
2023-03-06T03:49:35.264Z,97674.53
2023-03-06T03:52:01.704Z,97662.22
2023-03-06T03:54:28.790Z,97667.56
2023-03-06T03:56:55.255Z,97663.81
2023-03-06T03:59:21.733Z,97656.56
2023-03-06T04:01:48.450Z,97655.22
2023-03-06T04:04:15.233Z,97654.44
2023-03-06T04:06:41.723Z,97653.63
2023-03-06T04:09:08.215Z,97654.44
2023-03-06T04:11:34.784Z,97645.34
2023-03-06T04:14:01.371Z,97652.56
2023-03-06T04:16:27.867Z,97640.81
2023-03-06T04:18:54.294Z,97636.78
2023-03-06T04:21:20.784Z,97633.81
2023-03-06T04:23:47.235Z,97637.56
2023-03-06T04:26:13.629Z,97641.31
2023-03-06T04:28:40.026Z,97632.50
2023-03-06T04:31:06.535Z,97638.38
2023-03-06T04:33:33.037Z,97635.69
2023-03-06T04:35:59.476Z,97626.88
2023-03-06T04:38:25.887Z,97626.88
2023-03-06T04:40:52.389Z,97617.25
2023-03-06T04:43:19.041Z,97626.34
2023-03-06T04:45:45.509Z,97613.75
2023-03-06T04:48:17.586Z,97612.16
2023-03-06T04:50:44.613Z,97620.44
2023-03-06T04:53:11.076Z,97618.31
2023-03-06T04:55:37.595Z,97620.97
2023-03-06T04:58:04.135Z,97614.84
2023-03-06T05:00:31.604Z,97619.09
2023-03-06T05:03:01.918Z,97618.31
2023-03-06T05:05:29.261Z,97615.63
2023-03-06T05:07:56.166Z,97619.09
2023-03-06T05:10:23.466Z,97609.75
2023-03-06T05:12:49.917Z,97613.50
2023-03-06T05:15:16.894Z,97618.84
2023-03-06T05:17:43.341Z,97613.50
2023-03-06T05:20:11.628Z,97603.03
2023-03-06T05:22:38.152Z,97607.59
2023-03-06T05:25:05.253Z,97613.50
2023-03-06T05:27:32.010Z,97614.53
2023-03-06T05:29:58.783Z,97607.59
2023-03-06T05:32:25.418Z,97608.66
2023-03-06T05:34:52.042Z,97611.59
2023-03-06T05:37:18.718Z,97610.00
2023-03-06T05:39:45.404Z,97604.66
2023-03-06T05:42:11.835Z,97606.25
2023-03-06T05:44:38.314Z,97604.66
2023-03-06T05:47:05.072Z,97599.84
2023-03-06T05:49:33.738Z,97604.38
2023-03-06T05:52:04.045Z,97601.72
2023-03-06T05:54:34.429Z,97601.72
2023-03-06T05:57:02.413Z,97601.72
2023-03-06T05:59:29.147Z,97599.03
2023-03-06T06:01:56.502Z,97604.38
2023-03-06T06:04:26.249Z,97603.59
2023-03-06T06:07:00.034Z,97600.91
2023-03-06T06:09:27.789Z,97608.66
2023-03-06T06:12:00.153Z,97602.50
2023-03-06T06:14:26.632Z,97597.44
2023-03-06T06:16:53.376Z,97603.31
2023-03-06T06:19:20.470Z,97597.16
2023-03-06T06:21:49.095Z,97603.31
2023-03-06T06:24:17.413Z,97603.31
2023-03-06T06:26:44.073Z,97600.63
2023-03-06T06:29:11.548Z,97607.59
2023-03-06T06:31:39.454Z,97607.59
2023-03-06T06:34:07.369Z,97609.19
2023-03-06T06:36:34.233Z,97608.16
2023-03-06T06:39:00.825Z,97599.06
2023-03-06T06:41:46.160Z,97613.75
2023-03-06T06:44:16.236Z,97616.97
2023-03-06T06:49:32.025Z,97599.59
2023-03-06T06:51:58.795Z,97606.00
2023-03-06T06:54:25.309Z,97606.28
2023-03-06T06:56:51.974Z,97611.09
2023-03-06T06:59:18.443Z,97610.59
2023-03-06T07:01:44.976Z,97613.25
2023-03-06T07:04:12.984Z,97618.88
2023-03-06T07:06:39.592Z,97611.38
2023-03-06T07:09:06.021Z,97612.47
2023-03-06T07:11:32.578Z,97606.56
2023-03-06T07:13:59.218Z,97607.13
2023-03-06T07:16:25.599Z,97607.66
2023-03-06T07:18:52.061Z,97610.84
2023-03-06T07:21:18.588Z,97617.00
2023-03-06T07:23:45.216Z,97615.13
2023-03-06T07:26:11.960Z,97615.13
2023-03-06T07:28:51.525Z,97621.56
2023-03-06T07:31:21.973Z,97627.44
2023-03-06T07:33:49.772Z,97622.38
2023-03-06T07:36:16.395Z,97621.03
2023-03-06T07:38:42.885Z,97620.50
2023-03-06T07:41:13.337Z,97629.59
2023-03-06T07:43:41.281Z,97625.31
2023-03-06T07:46:08.383Z,97635.47
2023-03-06T07:48:35.983Z,97634.41
2023-03-06T07:51:05.300Z,97636.03
2023-03-06T07:53:32.671Z,97635.50
2023-03-06T07:56:00.016Z,97637.63
2023-03-06T07:58:26.679Z,97643.53
2023-03-06T08:00:53.174Z,97647.25
2023-03-06T08:03:19.695Z,97648.88
2023-03-06T08:05:46.180Z,97649.94
2023-03-06T08:08:12.850Z,97642.94
2023-03-06T08:10:39.301Z,97640.56
2023-03-06T08:13:05.705Z,97653.69
2023-03-06T08:15:32.107Z,97644.00
2023-03-06T08:17:58.623Z,97648.56
2023-03-06T08:20:25.107Z,97640.00
2023-03-06T08:22:51.786Z,97655.22
2023-03-06T08:25:18.381Z,97657.34
2023-03-06T08:27:46.721Z,97646.63
2023-03-06T08:30:14.123Z,97636.41
2023-03-06T08:32:40.851Z,97639.09
2023-03-06T08:35:08.266Z,97642.00
2023-03-06T08:37:35.080Z,97643.34
2023-03-06T08:40:04.499Z,97646.78
2023-03-06T08:42:31.978Z,97649.44
2023-03-06T08:44:58.559Z,97650.53
2023-03-06T08:47:25.127Z,97641.63
2023-03-06T08:49:51.632Z,97649.63
2023-03-06T08:52:19.759Z,97654.44
2023-03-06T08:54:46.635Z,97649.13
2023-03-06T08:57:13.068Z,97650.75
2023-03-06T08:59:39.680Z,97651.25
2023-03-06T09:02:07.516Z,97657.19
2023-03-06T09:04:36.235Z,97651.34
2023-03-06T09:07:02.836Z,97651.34
2023-03-06T09:09:29.371Z,97667.41
2023-03-06T09:11:56.312Z,97654.53
2023-03-06T09:14:22.800Z,97652.06
2023-03-06T09:16:49.285Z,97648.28
2023-03-06T09:19:15.792Z,97661.38
2023-03-06T09:21:42.233Z,97656.59
2023-03-06T09:24:08.845Z,97657.38
2023-03-06T09:26:45.629Z,97657.66
2023-03-06T09:29:13.373Z,97656.59
2023-03-06T09:31:39.989Z,97655.22
2023-03-06T09:34:06.508Z,97656.81
2023-03-06T09:36:42.687Z,97655.41
2023-03-06T09:39:13.395Z,97664.56
2023-03-06T09:41:41.594Z,97660.56
2023-03-06T09:44:15.768Z,97656.00
2023-03-06T09:46:54.932Z,97671.59
2023-03-06T09:49:30.358Z,97662.50
2023-03-06T09:52:34.057Z,97666.03
2023-03-06T09:55:35.299Z,97667.38
2023-03-06T09:58:20.069Z,97657.19
2023-03-06T10:01:01.848Z,97661.22
2023-03-06T10:03:39.469Z,97666.56
2023-03-06T10:06:30.113Z,97656.38
2023-03-06T10:09:38.147Z,97659.34
2023-03-06T10:12:11.041Z,97661.50
2023-03-06T10:14:47.730Z,97659.34
2023-03-06T10:17:21.051Z,97661.47
2023-03-06T10:19:47.695Z,97663.88
2023-03-06T10:22:31.036Z,97670.38
2023-03-06T10:25:16.686Z,97664.75
2023-03-06T10:27:47.847Z,97666.34
2023-03-06T10:30:26.975Z,97670.09
2023-03-06T10:32:58.509Z,97664.16
2023-03-06T10:35:31.217Z,97664.72
2023-03-06T10:38:02.114Z,97664.72
2023-03-06T10:40:40.718Z,97662.00
2023-03-06T10:43:12.455Z,97666.03
2023-03-06T10:45:50.896Z,97664.66
2023-03-06T10:48:24.251Z,97667.84
2023-03-06T10:50:51.323Z,97662.97
2023-03-06T10:53:26.956Z,97666.66
2023-03-06T10:55:58.822Z,97673.69
2023-03-06T10:58:30.017Z,97669.94
2023-03-06T11:01:21.037Z,97663.50
2023-03-06T11:03:48.041Z,97665.13
2023-03-06T11:06:40.923Z,97655.91
2023-03-06T11:09:21.482Z,97663.63
2023-03-06T11:11:48.817Z,97647.53
2023-03-06T11:14:18.336Z,97652.88
2023-03-06T11:16:53.117Z,97654.91
2023-03-06T11:19:25.751Z,97648.69
2023-03-06T11:22:18.573Z,97649.13
2023-03-06T11:24:50.341Z,97639.94
2023-03-06T11:27:25.827Z,97631.28
2023-03-06T11:29:55.606Z,97636.03
2023-03-06T11:32:29.374Z,97636.25
2023-03-06T11:35:11.799Z,97639.47
2023-03-06T11:37:53.968Z,97636.31
2023-03-06T11:40:20.377Z,97636.03
2023-03-06T11:43:05.773Z,97631.78
2023-03-06T11:45:44.974Z,97625.94
2023-03-06T11:48:14.375Z,97623.81
2023-03-06T11:50:47.124Z,97613.59
2023-03-06T11:53:13.568Z,97629.16
2023-03-06T11:56:02.059Z,97614.94
2023-03-06T11:58:56.017Z,97607.91
2023-03-06T12:01:46.545Z,97602.22
2023-03-06T12:04:38.950Z,97607.00
2023-03-06T12:07:23.854Z,97593.94
2023-03-06T12:09:50.214Z,97596.53
2023-03-06T12:12:32.055Z,97593.28
2023-03-06T12:15:13.813Z,97594.63
2023-03-06T12:18:09.500Z,97595.44
2023-03-06T12:21:05.119Z,97591.06
2023-03-06T12:23:51.327Z,97593.75
2023-03-06T12:27:15.207Z,97589.28
2023-03-06T12:30:00.574Z,97581.31
2023-03-06T12:32:39.958Z,97576.22
2023-03-06T12:35:37.085Z,97580.00
2023-03-06T12:38:06.428Z,97586.03
2023-03-06T12:40:51.717Z,97585.13
2023-03-06T12:43:37.782Z,97592.25
2023-03-06T12:46:16.313Z,97572.44
2023-03-06T12:48:48.369Z,97571.13
2023-03-06T12:51:18.863Z,97581.09
2023-03-06T12:53:45.728Z,97570.09
2023-03-06T12:56:16.050Z,97567.94
2023-03-06T12:58:53.462Z,97575.59
2023-03-06T13:02:04.865Z,97571.75
2023-03-06T13:04:48.177Z,97559.09
2023-03-06T13:07:58.330Z,97567.94
2023-03-06T13:10:36.084Z,97561.59
2023-03-06T13:13:05.018Z,97560.00
2023-03-06T13:15:43.577Z,97558.91
2023-03-06T13:18:22.348Z,97557.19
2023-03-06T13:20:50.820Z,97552.31
2023-03-06T13:23:29.743Z,97556.34
2023-03-06T13:26:01.362Z,97552.56
2023-03-06T13:28:51.110Z,97558.19
2023-03-06T13:31:28.672Z,97552.81
2023-03-06T13:34:25.728Z,97553.00
2023-03-06T13:36:52.203Z,97555.94
2023-03-06T13:39:18.793Z,97558.63
2023-03-06T13:42:16.534Z,97559.09
2023-03-06T13:44:44.599Z,97561.78
2023-03-06T13:47:39.773Z,97556.91
2023-03-06T13:50:26.931Z,97560.59
2023-03-06T13:53:13.362Z,97561.47
2023-03-06T13:56:29.337Z,97553.69
2023-03-06T13:58:58.568Z,97552.66
2023-03-06T14:01:49.542Z,97559.47
2023-03-06T14:04:19.276Z,97555.53
2023-03-06T14:07:15.483Z,97546.44
2023-03-06T14:09:45.595Z,97558.28
2023-03-06T14:12:26.678Z,97546.47
2023-03-06T14:14:57.425Z,97541.06
2023-03-06T14:17:29.019Z,97543.44
2023-03-06T14:19:59.958Z,97538.81
2023-03-06T14:22:26.370Z,97542.59
2023-03-06T14:24:57.965Z,97533.78
2023-03-06T14:27:42.160Z,97538.38
2023-03-06T14:30:12.786Z,97542.25
2023-03-06T14:32:40.652Z,97536.41
2023-03-06T14:35:18.418Z,97541.56
2023-03-06T14:37:50.266Z,97535.38
2023-03-06T14:40:26.095Z,97534.56
2023-03-06T14:43:26.987Z,97532.97
2023-03-06T14:45:58.980Z,97534.56
2023-03-06T14:48:41.301Z,97534.91
2023-03-06T14:51:15.698Z,97534.66
2023-03-06T14:53:46.695Z,97534.47
2023-03-06T14:56:20.301Z,97528.03
2023-03-06T14:59:06.116Z,97538.28
2023-03-06T15:01:40.542Z,97528.91
2023-03-06T15:04:19.007Z,97532.41
2023-03-06T15:06:45.671Z,97534.56
2023-03-06T15:09:24.339Z,97531.06
2023-03-06T15:12:19.835Z,97515.72
2023-03-06T15:15:04.114Z,97533.19
2023-03-06T15:17:37.974Z,97524.59
2023-03-06T15:20:08.769Z,97529.97
2023-03-06T15:22:41.078Z,97519.00
2023-03-06T15:25:23.329Z,97517.69
2023-03-06T15:27:52.474Z,97519.06
2023-03-06T15:30:25.015Z,97513.16
2023-03-06T15:32:52.249Z,97513.97
2023-03-06T15:35:24.448Z,97518.53
2023-03-06T15:37:51.235Z,97518.28
2023-03-06T15:40:19.988Z,97520.75
2023-03-06T15:42:47.047Z,97524.81
2023-03-06T15:45:18.115Z,97529.66
2023-03-06T15:47:47.958Z,97522.22
2023-03-06T15:50:21.031Z,97523.06
2023-03-06T15:52:48.708Z,97529.00
2023-03-06T15:55:24.733Z,97522.59
2023-03-06T15:57:59.571Z,97532.53
2023-03-06T16:00:34.697Z,97531.22
2023-03-06T16:03:01.844Z,97529.88
2023-03-06T16:05:29.253Z,97530.16
2023-03-06T16:07:56.108Z,97538.81
2023-03-06T16:10:25.275Z,97533.19
2023-03-06T16:12:55.234Z,97552.03
2023-03-06T16:15:28.929Z,97551.22
2023-03-06T16:17:58.489Z,97550.72
2023-03-06T16:20:27.478Z,97553.47
2023-03-06T16:22:54.755Z,97558.88
2023-03-06T16:25:22.989Z,97565.34
2023-03-06T16:27:55.528Z,97559.22
2023-03-06T16:30:23.912Z,97556.03
2023-03-06T16:32:50.309Z,97562.78
2023-03-06T16:35:17.049Z,97557.72
2023-03-06T16:37:45.073Z,97556.91
2023-03-06T16:40:26.546Z,97564.47
2023-03-06T16:42:54.797Z,97572.50
2023-03-06T16:45:23.058Z,97574.38
2023-03-06T16:47:49.577Z,97573.03
2023-03-06T16:50:18.720Z,97577.88
2023-03-06T16:52:45.307Z,97578.44
2023-03-06T16:55:11.772Z,97577.63
2023-03-06T16:57:38.210Z,97575.22
2023-03-06T17:00:16.376Z,97579.78
2023-03-06T17:02:43.141Z,97580.59
2023-03-06T17:05:11.241Z,97573.63
2023-03-06T17:07:38.478Z,97583.28
2023-03-06T17:10:06.515Z,97588.91
2023-03-06T17:12:33.058Z,97587.84
2023-03-06T17:14:59.614Z,97589.22
2023-03-06T17:17:26.242Z,97589.22
2023-03-06T17:19:53.093Z,97593.50
2023-03-06T17:22:20.435Z,97594.06
2023-03-06T17:24:52.147Z,97590.88
2023-03-06T17:27:19.947Z,97594.88
2023-03-06T17:29:46.957Z,97595.97
2023-03-06T17:32:13.822Z,97604.81
2023-03-06T17:34:40.902Z,97604.28
2023-03-06T17:37:07.302Z,97606.44
2023-03-06T17:39:38.048Z,97602.97
2023-03-06T17:42:06.527Z,97606.16
2023-03-06T17:44:34.314Z,97613.41
2023-03-06T17:47:00.965Z,97606.47
2023-03-06T17:49:27.389Z,97609.94
2023-03-06T17:51:56.485Z,97618.25
2023-03-06T17:54:26.104Z,97616.91
2023-03-06T17:57:01.019Z,97621.22
2023-03-06T17:59:28.070Z,97629.53
2023-03-06T18:01:58.757Z,97616.16
2023-03-06T18:04:26.131Z,97617.75
2023-03-06T18:06:52.785Z,97612.66
2023-03-06T18:09:19.390Z,97613.72
2023-03-06T18:11:46.497Z,97618.81
2023-03-06T18:14:12.894Z,97616.16
2023-03-06T18:16:39.575Z,97617.22
2023-03-06T18:19:06.103Z,97621.78
2023-03-06T18:21:32.786Z,97623.66
2023-03-06T18:23:59.218Z,97613.75
2023-03-06T18:26:28.203Z,97619.34
2023-03-06T18:28:57.559Z,97615.06
2023-03-06T18:31:27.892Z,97619.91
2023-03-06T18:33:59.991Z,97626.34
2023-03-06T18:36:29.399Z,97616.72
2023-03-06T18:38:56.451Z,97619.38
2023-03-06T18:41:23.325Z,97616.72
2023-03-06T18:43:54.303Z,97621.00
2023-03-06T18:46:21.551Z,97618.31
2023-03-06T18:48:48.265Z,97618.31
2023-03-06T18:51:15.793Z,97626.34
2023-03-06T18:53:42.791Z,97622.88
2023-03-06T18:56:16.185Z,97622.88
2023-03-06T18:58:43.670Z,97624.75
2023-03-06T19:01:10.899Z,97616.72
2023-03-06T19:03:37.382Z,97619.91
2023-03-06T19:06:06.717Z,97618.31
2023-03-06T19:08:33.290Z,97618.31
2023-03-06T19:11:06.264Z,97617.50
2023-03-06T19:13:32.865Z,97614.81
2023-03-06T19:15:59.677Z,97606.22
2023-03-06T19:18:28.031Z,97607.88
2023-03-06T19:20:56.515Z,97614.03
2023-03-06T19:23:23.130Z,97608.91
2023-03-06T19:26:00.319Z,97606.22
2023-03-06T19:28:27.791Z,97607.31
2023-03-06T19:30:54.372Z,97613.47
2023-03-06T19:33:20.860Z,97613.47
2023-03-06T19:35:47.946Z,97612.16
2023-03-06T19:38:15.526Z,97607.88
2023-03-06T19:40:49.389Z,97616.72
2023-03-06T19:43:15.934Z,97611.34
2023-03-06T19:45:43.973Z,97604.38
2023-03-06T19:48:12.420Z,97612.44
2023-03-06T19:50:40.630Z,97594.75
2023-03-06T19:53:07.866Z,97611.06
2023-03-06T19:55:34.423Z,97618.31
2023-03-06T19:58:00.953Z,97609.75
2023-03-06T20:00:27.660Z,97606.25
2023-03-06T20:02:54.097Z,97606.53
2023-03-06T20:05:20.575Z,97610.03
2023-03-06T20:07:47.109Z,97605.75
2023-03-06T20:10:14.952Z,97611.91
2023-03-06T20:12:41.557Z,97611.91
2023-03-06T20:15:08.599Z,97609.50
2023-03-06T20:17:35.778Z,97610.31
2023-03-06T20:20:02.652Z,97608.66
2023-03-06T20:22:29.091Z,97598.78
2023-03-06T20:24:55.567Z,97602.25
2023-03-06T20:27:22.018Z,97592.59
2023-03-06T20:29:48.489Z,97587.22
2023-03-06T20:32:15.108Z,97591.53
2023-03-06T20:34:41.733Z,97588.06
2023-03-06T20:37:08.977Z,97584.31
2023-03-06T20:39:35.966Z,97592.34
2023-03-06T20:42:05.081Z,97588.59
2023-03-06T20:44:31.882Z,97591.28
2023-03-06T20:46:58.375Z,97585.09
2023-03-06T20:49:27.172Z,97585.91
2023-03-06T20:51:53.973Z,97600.09
2023-03-06T20:54:20.526Z,97592.06
2023-03-06T20:56:48.953Z,97592.06
2023-03-06T20:59:15.865Z,97586.72
2023-03-06T21:01:44.534Z,97587.50
2023-03-06T21:04:13.942Z,97586.44
2023-03-06T21:06:43.943Z,97586.72
2023-03-06T21:09:11.279Z,97588.31
2023-03-06T21:11:38.195Z,97583.50
2023-03-06T21:14:05.384Z,97579.75
2023-03-06T21:16:31.970Z,97574.66
2023-03-06T21:19:00.101Z,97573.03
2023-03-06T21:21:30.559Z,97571.72
2023-03-06T21:23:57.582Z,97570.91
2023-03-06T21:26:27.039Z,97565.84
2023-03-06T21:28:53.930Z,97566.34
2023-03-06T21:31:22.135Z,97559.13
2023-03-06T21:33:50.169Z,97550.28
2023-03-06T21:36:18.730Z,97557.53
2023-03-06T21:38:46.489Z,97548.97
2023-03-06T21:41:17.328Z,97558.88
2023-03-06T21:43:46.606Z,97550.56
2023-03-06T21:46:13.636Z,97550.56
2023-03-06T21:48:40.196Z,97549.75
2023-03-06T21:51:09.181Z,97547.34
2023-03-06T21:53:36.763Z,97542.81
2023-03-06T21:56:04.123Z,97540.41
2023-03-06T21:58:30.970Z,97544.97
2023-03-06T22:00:57.787Z,97540.66
2023-03-06T22:03:24.580Z,97546.81
2023-03-06T22:05:52.080Z,97531.00
2023-03-06T22:08:21.272Z,97535.28
2023-03-06T22:10:48.873Z,97532.63
2023-03-06T22:13:15.788Z,97522.69
2023-03-06T22:15:55.152Z,97528.88
2023-03-06T22:18:21.586Z,97528.88
2023-03-06T22:20:48.043Z,97522.97
2023-03-06T22:23:14.543Z,97525.66
2023-03-06T22:25:41.139Z,97522.97
2023-03-06T22:28:07.723Z,97527.53
2023-03-06T22:30:34.181Z,97524.34
2023-03-06T22:33:00.645Z,97526.22
2023-03-06T22:35:27.141Z,97522.97
2023-03-06T22:37:53.578Z,97524.84
2023-03-06T22:40:20.025Z,97526.72
2023-03-06T22:42:46.512Z,97521.38
2023-03-06T22:45:13.035Z,97527.53
2023-03-06T22:47:39.661Z,97525.13
2023-03-06T22:50:06.782Z,97523.25
2023-03-06T22:52:33.382Z,97523.25
2023-03-06T22:54:59.760Z,97527.00
2023-03-06T22:57:26.436Z,97528.09
2023-03-06T22:59:52.878Z,97522.97
2023-03-06T23:02:19.304Z,97525.66
2023-03-06T23:04:52.235Z,97517.63
2023-03-06T23:07:20.007Z,97512.25
2023-03-06T23:09:46.970Z,97510.41
2023-03-06T23:12:13.604Z,97511.47
2023-03-06T23:14:40.146Z,97508.78
2023-03-06T23:17:06.563Z,97501.31
2023-03-06T23:19:32.949Z,97506.91
2023-03-06T23:21:59.352Z,97503.44
2023-03-06T23:24:25.797Z,97496.47
2023-03-06T23:26:52.156Z,97503.72
2023-03-06T23:29:18.545Z,97502.63
2023-03-06T23:31:44.930Z,97492.47
2023-03-06T23:34:11.616Z,97492.19
2023-03-06T23:36:37.993Z,97491.41
2023-03-06T23:39:04.469Z,97488.19
2023-03-06T23:41:30.890Z,97483.38
2023-03-06T23:43:58.490Z,97480.97
2023-03-06T23:46:24.979Z,97483.91
2023-03-06T23:48:52.228Z,97484.44
2023-03-06T23:51:20.590Z,97491.97
2023-03-06T23:53:48.180Z,97487.97
2023-03-06T23:56:15.256Z,97489.28
2023-03-06T23:58:41.762Z,97487.16
